createdAt,value
2023-02-02T01:02:11.323Z,4.50
2023-02-02T01:46:29.914Z,4.30
2023-02-02T01:49:13.512Z,4.40
2023-02-02T01:51:47.811Z,4.30
2023-02-02T01:54:23.031Z,4.30
2023-02-02T01:56:58.964Z,4.30
2023-02-02T01:59:27.442Z,4.30
2023-02-02T02:04:26.804Z,4.20
2023-02-02T02:14:35.299Z,4.20
2023-02-02T02:17:10.523Z,4.10
2023-02-02T02:20:11.072Z,4.10
2023-02-02T02:23:33.912Z,4.00
2023-02-02T02:29:01.361Z,4.00
2023-02-02T02:31:46.321Z,4.00
2023-02-02T02:34:30.040Z,4.00
2023-02-02T02:37:16.573Z,3.90
2023-02-02T02:39:52.958Z,3.90
2023-02-02T02:42:24.011Z,3.90
2023-02-02T02:44:51.461Z,3.90
2023-02-02T02:47:20.245Z,3.90
2023-02-02T02:49:48.687Z,3.90
2023-02-02T02:52:16.240Z,3.90
2023-02-02T02:54:46.377Z,3.80
2023-02-02T02:57:30.993Z,3.80
2023-02-02T03:00:10.288Z,3.80
2023-02-02T03:05:26.001Z,3.80
2023-02-02T03:08:07.997Z,3.70
2023-02-02T03:10:36.509Z,3.70
2023-02-02T03:13:08.465Z,3.80
2023-02-02T04:56:19.243Z,3.70
2023-02-02T05:01:19.284Z,3.50
2023-02-02T05:11:12.773Z,3.30
2023-02-02T05:16:07.270Z,3.40
2023-02-02T05:28:24.299Z,3.60
2023-02-02T05:35:50.047Z,3.60
2023-02-02T07:24:05.495Z,2.20
2023-02-02T07:36:23.972Z,2.00
2023-02-02T07:38:57.391Z,1.90
2023-02-02T07:48:55.268Z,1.70
2023-02-02T07:53:52.485Z,1.60
2023-02-02T07:56:25.516Z,1.60
2023-02-02T07:58:54.262Z,1.60
2023-02-02T08:06:28.505Z,1.70
2023-02-02T08:11:23.614Z,1.90
2023-02-02T08:13:52.620Z,1.90
2023-02-02T08:21:15.013Z,2.00
2023-02-02T08:23:42.982Z,2.00
2023-02-02T08:31:06.548Z,1.90
2023-02-02T08:46:13.249Z,2.00
2023-02-02T08:51:08.075Z,2.00
2023-02-02T08:56:07.731Z,2.00
2023-02-02T08:58:35.177Z,1.90
2023-02-02T09:01:05.646Z,2.00
2023-02-02T09:06:07.524Z,2.00
2023-02-02T09:11:17.302Z,1.90
2023-02-02T09:13:45.948Z,1.90
2023-02-02T09:16:14.978Z,1.90
2023-02-02T09:18:43.897Z,1.90
2023-02-02T09:21:13.377Z,1.90
2023-02-02T09:23:41.526Z,1.90
2023-02-02T09:26:16.807Z,2.00
2023-02-02T09:28:46.460Z,2.00
2023-02-02T09:36:10.354Z,2.00
2023-02-02T09:38:38.581Z,2.00
2023-02-02T09:41:22.635Z,2.10
2023-02-02T09:44:01.462Z,2.10
2023-02-02T09:46:57.327Z,2.10
2023-02-02T09:49:45.180Z,2.20
2023-02-02T09:52:25.091Z,2.20
2023-02-02T09:55:12.167Z,2.10
2023-02-02T09:57:45.021Z,2.10
2023-02-02T10:00:20.500Z,2.20
2023-02-02T10:05:24.913Z,2.20
2023-02-02T10:07:56.636Z,2.20
2023-02-02T10:10:35.465Z,2.30
2023-02-02T10:15:42.339Z,2.30
2023-02-02T10:20:39.089Z,2.30
2023-02-02T10:23:30.898Z,2.50
2023-02-02T10:26:05.883Z,3.00
2023-02-02T10:28:57.401Z,3.50
2023-02-02T10:32:03.491Z,3.70
2023-02-02T10:34:43.541Z,4.00
2023-02-02T10:37:38.620Z,4.10
2023-02-02T10:40:32.564Z,4.30
2023-02-02T10:43:38.988Z,4.30
2023-02-02T10:46:09.389Z,4.40
2023-02-02T10:51:13.712Z,4.50
2023-02-02T10:56:12.122Z,4.60
2023-02-02T10:59:08.973Z,4.70
2023-02-02T11:09:24.104Z,4.90
2023-02-02T11:12:14.691Z,4.90
2023-02-02T11:14:52.383Z,5.00
2023-02-02T11:17:28.675Z,5.00
2023-02-02T11:22:35.615Z,5.00
2023-02-02T11:25:26.861Z,5.10
2023-02-02T11:35:21.313Z,5.20
2023-02-02T11:38:02.228Z,5.20
2023-02-02T11:40:34.350Z,5.30
2023-02-02T11:43:05.152Z,5.30
2023-02-02T11:45:41.683Z,5.30
2023-02-02T11:48:18.533Z,5.30
2023-02-02T11:50:50.585Z,5.30
2023-02-02T11:53:27.528Z,5.30
2023-02-02T11:55:56.357Z,5.30
2023-02-02T11:58:42.658Z,5.30
2023-02-02T12:01:26.031Z,5.30
2023-02-02T12:03:55.541Z,5.30
2023-02-02T12:06:25.007Z,5.40
2023-02-02T12:08:57.227Z,5.30
2023-02-02T12:11:36.954Z,5.30
2023-02-02T12:14:15.878Z,5.30
2023-02-02T12:16:59.791Z,5.30
2023-02-02T12:19:50.225Z,5.30
2023-02-02T12:22:38.893Z,5.30
2023-02-02T12:25:14.662Z,5.40
2023-02-02T12:28:00.981Z,5.40
2023-02-02T12:30:40.016Z,5.40
2023-02-02T12:33:22.489Z,5.40
2023-02-02T12:38:46.030Z,5.40
2023-02-02T12:41:22.699Z,5.40
2023-02-02T12:43:58.326Z,5.40
2023-02-02T12:47:08.627Z,5.50
2023-02-02T12:50:23.697Z,5.50
2023-02-02T12:52:59.489Z,5.40
2023-02-02T12:58:23.690Z,5.50
2023-02-02T13:01:04.951Z,5.50
2023-02-02T13:04:07.393Z,5.50
2023-02-02T13:07:09.065Z,5.60
2023-02-02T13:10:06.570Z,5.50
2023-02-02T13:12:38.847Z,5.60
2023-02-02T13:15:10.357Z,5.60
2023-02-02T13:20:41.248Z,5.60
2023-02-02T13:25:52.081Z,5.60
2023-02-02T13:28:48.448Z,5.60
2023-02-02T13:31:25.729Z,5.60
2023-02-02T13:34:05.213Z,5.60
2023-02-02T13:36:37.651Z,5.60
2023-02-02T13:39:16.861Z,5.60
2023-02-02T13:41:45.644Z,5.60
2023-02-02T13:44:24.814Z,5.60
2023-02-02T13:47:09.724Z,5.60
2023-02-02T13:49:51.037Z,5.60
2023-02-02T13:55:20.048Z,5.60
2023-02-02T13:58:25.576Z,5.60
2023-02-02T14:00:55.802Z,5.70
2023-02-02T14:06:12.558Z,5.60
2023-02-02T14:08:51.497Z,5.60
2023-02-02T14:11:22.877Z,5.60
2023-02-02T14:14:12.324Z,5.50
2023-02-02T14:19:14.307Z,5.50
2023-02-02T14:24:26.398Z,5.50
2023-02-02T14:26:56.293Z,5.50
2023-02-02T14:29:32.228Z,5.50
2023-02-02T14:32:06.862Z,5.50
2023-02-02T14:34:35.042Z,5.50
2023-02-02T14:37:23.757Z,5.50
2023-02-02T14:39:56.892Z,5.40
2023-02-02T14:43:04.382Z,5.40
2023-02-02T14:45:41.736Z,5.40
2023-02-02T14:48:35.059Z,5.50
2023-02-02T14:51:02.715Z,5.40
2023-02-02T14:53:33.640Z,5.40
2023-02-02T14:56:10.665Z,5.40
2023-02-02T14:58:46.375Z,5.40
2023-02-02T15:01:23.056Z,5.40
2023-02-02T15:06:22.856Z,5.40
2023-02-02T15:09:20.558Z,5.30
2023-02-02T15:12:02.122Z,5.30
2023-02-02T15:15:03.683Z,5.30
2023-02-02T15:17:41.495Z,5.40
2023-02-02T15:20:26.730Z,5.30
2023-02-02T15:23:22.427Z,5.30
2023-02-02T15:26:00.965Z,5.30
2023-02-02T15:28:45.270Z,5.30
2023-02-02T15:33:43.899Z,5.30
2023-02-02T15:36:20.640Z,5.30
2023-02-02T15:38:52.113Z,5.30
2023-02-02T15:41:27.150Z,5.40
2023-02-02T15:46:26.333Z,5.30
2023-02-02T15:49:33.829Z,5.30
2023-02-02T15:52:26.694Z,5.40
2023-02-02T15:54:55.989Z,5.40
2023-02-02T15:57:34.158Z,5.40
2023-02-02T16:00:21.140Z,5.40
2023-02-02T16:02:56.262Z,5.30
2023-02-02T16:05:48.737Z,5.40
2023-02-02T16:08:19.929Z,5.30
2023-02-02T16:10:49.422Z,5.30
2023-02-02T16:13:43.967Z,5.40
2023-02-02T16:16:29.829Z,5.40
2023-02-02T16:19:13.959Z,5.40
2023-02-02T16:21:47.076Z,5.40
2023-02-02T16:24:31.443Z,5.40
2023-02-02T16:27:00.506Z,5.40
2023-02-02T16:31:56.509Z,5.40
2023-02-02T16:34:41.792Z,5.40
2023-02-02T16:37:32.674Z,5.50
2023-02-02T16:40:28.771Z,5.50
2023-02-02T16:43:17.988Z,5.50
2023-02-02T16:46:00.822Z,5.50
2023-02-02T16:51:16.607Z,5.60
2023-02-02T16:54:09.535Z,5.40
2023-02-02T16:56:46.039Z,5.30
2023-02-02T16:59:25.981Z,5.10
2023-02-02T17:02:23.677Z,5.00
2023-02-02T17:04:59.458Z,4.90
2023-02-02T17:07:27.893Z,4.80
2023-02-02T17:10:18.143Z,4.70
2023-02-02T17:12:45.976Z,4.60
2023-02-02T17:15:18.875Z,4.50
2023-02-02T17:17:49.637Z,4.40
2023-02-02T17:20:18.943Z,4.40
2023-02-02T17:22:49.332Z,4.30
2023-02-02T17:25:29.762Z,4.20
2023-02-02T17:27:58.597Z,4.10
2023-02-02T17:35:23.551Z,4.00
2023-02-02T17:40:23.959Z,3.90
2023-02-02T17:42:53.256Z,3.90
2023-02-02T17:45:23.209Z,3.80
2023-02-02T17:47:52.948Z,3.80
2023-02-02T17:52:49.878Z,3.70
2023-02-02T17:55:23.958Z,3.70
2023-02-02T18:00:22.796Z,3.60
2023-02-02T18:02:54.676Z,3.60
2023-02-02T18:17:42.605Z,3.40
2023-02-02T18:20:13.232Z,3.40
2023-02-02T19:12:13.523Z,3.00
2023-02-02T19:17:22.111Z,2.90
2023-02-02T19:22:24.914Z,2.90
2023-02-02T19:27:24.693Z,2.80
2023-02-02T19:29:55.764Z,2.80
2023-02-02T19:32:25.121Z,2.90
2023-02-02T19:34:58.633Z,2.90
2023-02-02T19:37:30.291Z,2.80
2023-02-02T19:40:15.348Z,2.80
2023-02-02T19:42:56.872Z,2.80
2023-02-02T19:45:33.116Z,2.80
2023-02-02T19:48:15.084Z,2.80
2023-02-02T19:53:35.961Z,2.80
2023-02-02T19:58:37.132Z,2.80
2023-02-02T20:01:14.980Z,2.70
2023-02-02T20:06:23.476Z,2.70
2023-02-02T20:11:32.814Z,2.70
2023-02-02T20:14:01.592Z,2.70
2023-02-02T20:16:37.922Z,2.70
2023-02-02T20:21:41.352Z,2.70
2023-02-02T20:24:48.728Z,2.70
2023-02-02T20:27:19.323Z,2.70
2023-02-02T20:29:48.539Z,2.70
2023-02-02T20:32:26.563Z,2.70
2023-02-02T20:34:57.008Z,2.70
2023-02-02T20:37:29.164Z,2.70
2023-02-02T20:40:01.910Z,2.70
2023-02-02T20:42:29.796Z,2.70
2023-02-02T20:54:52.231Z,2.60
2023-02-02T21:02:19.163Z,2.60
2023-02-02T21:04:49.532Z,2.60
2023-02-02T21:07:18.377Z,2.60
2023-02-02T21:09:46.215Z,2.70
2023-02-02T21:34:31.059Z,2.90
2023-02-02T21:42:09.777Z,3.60
2023-02-02T21:44:49.731Z,4.00
2023-02-02T21:47:22.400Z,4.30
2023-02-02T21:52:18.604Z,4.60
2023-02-02T21:54:46.385Z,4.70
2023-02-02T21:57:20.824Z,4.80
2023-02-02T21:59:56.133Z,4.80
2023-02-02T22:02:44.894Z,4.80
2023-02-02T22:05:38.198Z,4.90
2023-02-02T22:08:20.555Z,4.90
2023-02-02T22:13:21.501Z,4.90
2023-02-02T22:15:51.068Z,5.00
2023-02-02T22:18:23.912Z,5.00
2023-02-02T22:20:52.443Z,5.00
2023-02-02T22:23:23.822Z,5.00
2023-02-02T22:25:53.789Z,5.00
2023-02-02T22:28:40.893Z,5.00
2023-02-02T22:36:03.133Z,5.00
2023-02-02T23:10:28.110Z,5.00
2023-02-02T23:12:58.448Z,4.90
2023-02-02T23:20:20.360Z,4.90
2023-02-02T23:30:11.787Z,4.90
2023-02-02T23:35:09.302Z,4.90
